createdAt,value
2019-03-30T00:00:09.066Z,70.62
2019-03-30T00:05:04.372Z,70.92
2019-03-30T00:09:58.447Z,71.54
2019-03-30T00:14:52.564Z,71.84
2019-03-30T00:19:47.159Z,72.12
2019-03-30T00:24:41.323Z,72.38
2019-03-30T00:29:35.312Z,72.51
2019-03-30T00:34:29.421Z,72.77
2019-03-30T00:39:23.501Z,73.04
2019-03-30T00:44:17.457Z,73.30
2019-03-30T00:49:11.541Z,73.62
2019-03-30T00:54:05.517Z,73.68
2019-03-30T00:58:59.630Z,73.90
2019-03-30T01:03:53.633Z,74.08
2019-03-30T01:08:47.890Z,74.25
2019-03-30T01:13:42.018Z,74.52
2019-03-30T01:18:36.348Z,74.38
2019-03-30T01:23:30.434Z,74.48
2019-03-30T01:28:24.995Z,75.31
2019-03-30T01:33:19.057Z,75.06
2019-03-30T01:38:13.029Z,75.09
2019-03-30T01:43:06.991Z,75.18
2019-03-30T01:48:00.959Z,75.07
2019-03-30T01:52:55.043Z,75.23
2019-03-30T01:57:49.233Z,75.46
2019-03-30T02:02:43.328Z,75.61
2019-03-30T02:07:37.508Z,75.55
2019-03-30T02:12:31.437Z,75.40
2019-03-30T02:17:25.404Z,75.04
2019-03-30T02:22:19.364Z,75.02
2019-03-30T02:27:13.439Z,74.92
2019-03-30T02:32:07.606Z,75.11
2019-03-30T02:37:01.583Z,75.60
2019-03-30T02:41:55.561Z,75.89
2019-03-30T02:46:49.526Z,76.06
2019-03-30T02:51:43.479Z,76.26
2019-03-30T02:56:37.474Z,76.59
2019-03-30T03:01:31.465Z,76.59
2019-03-30T03:06:25.537Z,76.74
2019-03-30T03:11:19.646Z,76.92
2019-03-30T03:16:13.643Z,77.21
2019-03-30T03:21:08.738Z,77.43
2019-03-30T03:26:03.165Z,77.46
2019-03-30T03:30:57.581Z,77.55
2019-03-30T03:35:51.545Z,77.66
2019-03-30T03:40:45.520Z,77.82
2019-03-30T03:45:39.689Z,78.09
2019-03-30T03:50:41.720Z,78.03
2019-03-30T03:55:35.777Z,78.34
2019-03-30T04:00:29.853Z,78.31
2019-03-30T04:05:25.742Z,78.60
2019-03-30T04:10:21.726Z,78.66
2019-03-30T04:15:23.095Z,79.01
2019-03-30T04:20:22.285Z,79.30
2019-03-30T04:25:16.240Z,79.55
2019-03-30T04:30:10.198Z,79.61
2019-03-30T04:35:04.567Z,79.73
2019-03-30T04:39:58.558Z,79.94
2019-03-30T04:44:52.790Z,79.84
2019-03-30T04:49:46.744Z,80.04
2019-03-30T04:54:40.752Z,80.20
2019-03-30T04:59:34.737Z,80.47
2019-03-30T05:04:28.761Z,80.27
2019-03-30T05:09:22.729Z,80.33
2019-03-30T05:14:17.145Z,80.54
2019-03-30T05:19:11.371Z,80.36
2019-03-30T05:24:05.393Z,80.30
2019-03-30T05:28:59.362Z,80.06
2019-03-30T05:33:53.358Z,79.98
2019-03-30T05:38:47.542Z,79.96
2019-03-30T05:43:41.544Z,80.00
2019-03-30T05:48:35.476Z,79.91
2019-03-30T05:53:29.506Z,79.38
2019-03-30T05:58:23.457Z,79.53
2019-03-30T06:03:17.689Z,79.23
2019-03-30T06:08:11.661Z,78.51
2019-03-30T06:13:05.661Z,77.66
2019-03-30T06:17:59.859Z,77.23
2019-03-30T06:22:53.833Z,76.54
2019-03-30T06:27:47.795Z,75.15
2019-03-30T06:32:43.551Z,74.87
2019-03-30T06:37:37.594Z,74.17
2019-03-30T06:42:31.695Z,72.93
2019-03-30T06:47:25.779Z,71.32
2019-03-30T06:52:19.921Z,70.42
2019-03-30T06:57:13.892Z,69.90
2019-03-30T07:02:08.539Z,68.86
2019-03-30T07:07:02.671Z,68.15
2019-03-30T07:11:58.338Z,68.05
2019-03-30T07:16:53.516Z,67.26
2019-03-30T07:21:47.605Z,65.47
2019-03-30T07:26:41.649Z,64.51
2019-03-30T07:31:35.633Z,63.61
2019-03-30T07:36:29.616Z,62.97
2019-03-30T07:41:23.632Z,62.47
2019-03-30T07:46:19.629Z,62.15
2019-03-30T07:51:13.601Z,61.24
2019-03-30T07:56:08.849Z,60.17
2019-03-30T08:01:02.994Z,59.27
2019-03-30T08:05:57.082Z,58.82
2019-03-30T08:10:51.059Z,57.81
2019-03-30T08:15:45.143Z,57.52
2019-03-30T08:20:39.234Z,56.03
2019-03-30T08:25:33.225Z,54.61
2019-03-30T08:30:27.297Z,53.66
2019-03-30T08:35:21.360Z,53.06
2019-03-30T08:40:15.322Z,51.01
2019-03-30T08:45:09.715Z,49.89
2019-03-30T08:50:06.296Z,50.51
2019-03-30T08:55:00.379Z,51.23
2019-03-30T08:59:54.476Z,51.05
2019-03-30T09:04:48.584Z,49.63
2019-03-30T09:09:42.680Z,47.81
2019-03-30T09:14:36.650Z,47.76
2019-03-30T09:19:30.732Z,47.69
2019-03-30T09:24:24.812Z,46.66
2019-03-30T09:29:20.051Z,45.41
2019-03-30T09:34:14.129Z,45.96
2019-03-30T09:39:08.432Z,44.36
2019-03-30T09:44:02.716Z,43.74
2019-03-30T09:48:56.710Z,43.18
2019-03-30T09:53:50.998Z,42.87
2019-03-30T09:58:45.425Z,42.32
2019-03-30T10:03:39.527Z,41.79
2019-03-30T10:08:33.522Z,41.72
2019-03-30T10:13:27.470Z,39.24
2019-03-30T10:18:21.448Z,38.76
2019-03-30T10:23:15.662Z,37.20
2019-03-30T10:28:09.672Z,34.78
2019-03-30T10:33:03.659Z,34.67
2019-03-30T10:37:57.651Z,32.90
2019-03-30T10:42:51.736Z,30.18
2019-03-30T10:47:45.721Z,26.36
2019-03-30T10:52:39.733Z,22.93
2019-03-30T10:57:33.698Z,20.93
2019-03-30T11:02:27.699Z,21.57
2019-03-30T11:07:21.765Z,18.48
2019-03-30T11:12:15.739Z,18.54
2019-03-30T11:17:09.752Z,16.81
2019-03-30T11:22:03.744Z,17.32
2019-03-30T11:26:57.746Z,15.15
2019-03-30T11:31:51.711Z,17.61
2019-03-30T11:36:45.695Z,17.92
2019-03-30T11:41:39.663Z,15.09
2019-03-30T11:46:33.758Z,13.73
2019-03-30T11:51:27.722Z,15.59
2019-03-30T11:56:21.684Z,14.52
2019-03-30T12:01:15.675Z,12.78
2019-03-30T12:06:09.901Z,12.57
2019-03-30T12:11:03.990Z,11.29
2019-03-30T12:15:58.303Z,13.35
2019-03-30T12:20:52.282Z,13.43
2019-03-30T12:25:46.393Z,13.51
2019-03-30T12:30:40.569Z,12.43
2019-03-30T12:35:34.718Z,12.90
2019-03-30T12:40:28.710Z,12.64
2019-03-30T12:45:22.830Z,11.96
2019-03-30T12:50:16.940Z,11.25
2019-03-30T12:55:11.114Z,11.01
2019-03-30T13:00:06.025Z,10.00
2019-03-30T13:05:00.060Z,10.61
2019-03-30T13:09:54.193Z,11.37
2019-03-30T13:14:48.317Z,11.32
2019-03-30T13:19:42.299Z,11.53
2019-03-30T13:24:36.393Z,11.92
2019-03-30T13:29:30.690Z,11.48
2019-03-30T13:34:24.658Z,11.06
2019-03-30T13:39:18.654Z,10.95
2019-03-30T13:44:12.750Z,11.29
2019-03-30T13:49:06.774Z,11.63
2019-03-30T13:54:01.229Z,11.72
2019-03-30T13:58:55.212Z,9.40
2019-03-30T14:03:49.210Z,9.69
2019-03-30T14:08:43.228Z,8.62
2019-03-30T14:13:37.239Z,9.18
2019-03-30T14:18:31.492Z,8.68
2019-03-30T14:23:25.664Z,9.16
2019-03-30T14:28:19.989Z,8.75
2019-03-30T14:33:20.244Z,8.50
2019-03-30T14:38:14.261Z,10.29
2019-03-30T14:43:08.346Z,7.58
2019-03-30T14:48:02.604Z,6.75
2019-03-30T14:52:56.681Z,7.43
2019-03-30T14:57:50.757Z,8.50
2019-03-30T15:02:44.871Z,8.82
2019-03-30T15:07:39.061Z,8.61
2019-03-30T15:12:33.095Z,7.07
2019-03-30T15:17:27.104Z,6.73
2019-03-30T15:22:21.107Z,6.30
2019-03-30T15:27:15.344Z,6.70
2019-03-30T15:32:09.428Z,7.53
2019-03-30T15:37:03.661Z,6.00
2019-03-30T15:41:57.954Z,5.80
2019-03-30T15:46:51.924Z,6.43
2019-03-30T15:51:45.959Z,6.74
2019-03-30T15:56:39.951Z,6.29
2019-03-30T16:01:33.959Z,6.55
2019-03-30T16:06:28.093Z,6.80
2019-03-30T16:11:22.325Z,7.32
2019-03-30T16:16:16.319Z,7.70
2019-03-30T16:21:10.594Z,7.05
2019-03-30T16:26:04.975Z,7.20
2019-03-30T16:30:59.186Z,7.97
2019-03-30T16:35:53.187Z,8.75
2019-03-30T16:40:47.258Z,8.40
2019-03-30T16:45:41.244Z,9.39
2019-03-30T16:50:35.259Z,9.14
2019-03-30T16:55:29.232Z,10.62
2019-03-30T17:00:23.450Z,11.20
2019-03-30T17:05:17.473Z,11.37
2019-03-30T17:10:11.793Z,14.70
2019-03-30T17:15:06.111Z,20.01
2019-03-30T17:20:00.168Z,24.16
2019-03-30T17:24:54.480Z,24.75
2019-03-30T17:29:48.809Z,24.73
2019-03-30T17:34:42.788Z,25.56
2019-03-30T17:39:36.906Z,26.37
2019-03-30T17:45:46.813Z,27.91
2019-03-30T17:50:41.037Z,28.19
2019-03-30T19:00:06.051Z,40.77
2019-03-30T19:05:00.393Z,41.74
2019-03-30T19:09:54.498Z,43.19
2019-03-30T19:16:15.560Z,44.60
2019-03-30T19:21:09.594Z,45.80
2019-03-30T19:26:03.647Z,46.21
2019-03-30T19:30:57.629Z,47.54
2019-03-30T19:35:51.698Z,48.24
2019-03-30T19:40:45.694Z,48.21
2019-03-30T19:45:39.679Z,49.03
2019-03-30T19:50:33.704Z,49.81
2019-03-30T19:55:28.095Z,50.66
2019-03-30T20:00:22.308Z,51.35
2019-03-30T20:05:16.564Z,52.30
2019-03-30T20:10:10.985Z,52.69
2019-03-30T20:15:44.052Z,54.09
2019-03-30T20:20:38.096Z,54.32
2019-03-30T20:25:32.099Z,55.20
2019-03-30T20:30:26.083Z,56.87
2019-03-30T20:35:20.190Z,56.51
2019-03-30T20:40:14.392Z,57.00
2019-03-30T20:45:53.519Z,57.43
2019-03-30T20:50:47.692Z,57.92
2019-03-30T20:55:41.664Z,58.28
2019-03-30T21:00:35.657Z,59.02
2019-03-30T21:05:29.648Z,60.65
2019-03-30T21:10:23.617Z,60.67
2019-03-30T21:15:17.827Z,61.71
2019-03-30T21:20:13.051Z,61.88
2019-03-30T21:25:07.340Z,62.28
2019-03-30T21:30:03.745Z,63.37
2019-03-30T21:34:57.777Z,63.54
2019-03-30T21:39:51.802Z,64.10
2019-03-30T21:44:45.942Z,64.15
2019-03-30T21:49:40.235Z,64.73
2019-03-30T21:54:34.302Z,64.76
2019-03-30T21:59:28.395Z,65.55
2019-03-30T22:04:23.647Z,66.04
2019-03-30T22:09:17.957Z,66.26
2019-03-30T22:14:13.582Z,66.22
2019-03-30T22:19:07.637Z,65.78
2019-03-30T22:24:01.801Z,66.22
2019-03-30T22:28:55.879Z,66.10
2019-03-30T22:33:49.976Z,66.46
2019-03-30T22:38:44.018Z,66.36
2019-03-30T22:43:37.991Z,66.67
2019-03-30T22:48:32.000Z,67.33
2019-03-30T22:53:25.977Z,67.83
2019-03-30T22:58:19.978Z,67.62
2019-03-30T23:03:14.141Z,67.75
2019-03-30T23:08:08.189Z,68.74
2019-03-30T23:13:02.279Z,68.87
2019-03-30T23:17:56.320Z,68.77
2019-03-30T23:22:50.304Z,68.96
2019-03-30T23:27:44.448Z,70.10
2019-03-30T23:32:38.392Z,69.71
2019-03-30T23:37:32.417Z,70.08
2019-03-30T23:42:26.423Z,70.27
2019-03-30T23:47:20.710Z,70.54
2019-03-30T23:52:14.711Z,70.96
2019-03-30T23:57:08.794Z,71.01
